Time;durP1;ratioP1;P1;durP2;ratioP2;P2;SDS_P1;SDS_P2;PMS_P1;PMS_P2;Temp;Humidity;BMP_temperature;BMP_pressure;BME280_temperature;BME280_humidity;BME280_pressure;Samples;Min_cycle;Max_cycle;Signal;HPM_P1;HPM_P2
2022/05/18 00:00:52;;;;;;;4.80;0.90;;;12.80;99.90;;;;;;5013657;28;20171;-57
2022/05/18 00:03:22;;;;;;;3.70;0.97;;;12.80;99.90;;;;;;5020024;28;20251;-57
2022/05/18 00:05:48;;;;;;;4.60;0.80;;;12.80;99.90;;;;;;5012547;28;20213;-57
2022/05/18 00:08:14;;;;;;;7.50;1.25;;;12.80;99.90;;;;;;5024349;28;20181;-57
2022/05/18 00:10:45;;;;;;;10.03;1.27;;;12.90;99.90;;;;;;5029583;28;20190;-55
2022/05/18 00:13:10;;;;;;;12.27;1.20;;;12.90;99.90;;;;;;5014323;28;20186;-54
2022/05/18 00:15:38;;;;;;;6.00;1.05;;;12.90;99.90;;;;;;5027420;28;20185;-57
2022/05/18 00:18:04;;;;;;;4.97;1.00;;;12.90;99.90;;;;;;5026491;28;20186;-54
2022/05/18 00:20:30;;;;;;;5.38;1.10;;;12.90;99.90;;;;;;5018158;28;20304;-55
2022/05/18 00:22:58;;;;;;;6.03;1.27;;;12.90;99.90;;;;;;5030860;28;20186;-56
2022/05/18 00:25:27;;;;;;;3.60;1.00;;;12.90;99.90;;;;;;5030751;28;20286;-55
2022/05/18 00:27:53;;;;;;;6.63;1.30;;;12.90;99.90;;;;;;5029152;28;20174;-56
2022/05/18 00:30:21;;;;;;;8.70;1.60;;;12.90;99.90;;;;;;5030664;28;20636;-55
2022/05/18 00:32:47;;;;;;;11.13;1.27;;;12.80;99.90;;;;;;5030721;28;20204;-56
2022/05/18 00:35:13;;;;;;;5.50;0.97;;;12.90;99.90;;;;;;5030141;28;20220;-56
2022/05/18 00:37:40;;;;;;;6.47;0.90;;;12.80;99.90;;;;;;5017704;28;20182;-57
2022/05/18 00:40:08;;;;;;;5.88;1.05;;;12.80;99.90;;;;;;5015981;28;20235;-57
2022/05/18 00:42:34;;;;;;;5.25;1.20;;;12.70;99.90;;;;;;5030692;28;20166;-57
2022/05/18 00:45:00;;;;;;;4.97;1.20;;;12.60;99.90;;;;;;5022155;28;20328;-56
2022/05/18 00:47:25;;;;;;;8.38;1.15;;;12.70;99.90;;;;;;5030435;28;20312;-56
2022/05/18 00:49:58;;;;;;;7.57;1.20;;;12.60;99.90;;;;;;5012706;28;20178;-56
2022/05/18 00:52:30;;;;;;;4.70;1.17;;;12.60;99.90;;;;;;5015143;28;20170;-56
2022/05/18 00:54:59;;;;;;;10.97;1.77;;;12.70;99.90;;;;;;5029400;28;20461;-61
2022/05/18 00:57:30;;;;;;;7.43;1.10;;;12.70;99.90;;;;;;5027030;28;20186;-56
2022/05/18 01:00:01;;;;;;;6.10;0.87;;;12.70;99.90;;;;;;5017609;28;20258;-55
2022/05/18 01:02:32;;;;;;;9.40;1.43;;;12.70;99.90;;;;;;5030306;28;20663;-56
2022/05/18 01:05:01;;;;;;;4.30;1.10;;;12.60;99.90;;;;;;5028883;28;20182;-56
2022/05/18 01:07:42;;;;;;;6.30;1.73;;;12.60;99.90;;;;;;5021549;28;20185;-56
2022/05/18 01:10:07;;;;;;;3.33;1.10;;;12.60;99.90;;;;;;5010684;28;20261;-56
2022/05/18 01:12:33;;;;;;;3.97;1.10;;;12.60;99.90;;;;;;5010584;28;20673;-56
2022/05/18 01:15:05;;;;;;;7.93;1.33;;;12.50;99.90;;;;;;5017952;28;20175;-56
2022/05/18 01:17:38;;;;;;;3.83;1.17;;;12.50;99.90;;;;;;5026980;28;20182;-56
2022/05/18 01:20:13;;;;;;;7.15;1.33;;;12.40;99.90;;;;;;5010778;28;20215;-56
2022/05/18 01:22:48;;;;;;;6.83;1.50;;;12.40;99.90;;;;;;5010695;28;20184;-56
2022/05/18 01:25:31;;;;;;;6.33;1.23;;;12.40;99.90;;;;;;5012417;28;20215;-56
2022/05/18 01:27:59;;;;;;;6.87;1.23;;;12.40;99.90;;;;;;5023260;28;20204;-56
2022/05/18 01:30:26;;;;;;;4.60;1.10;;;12.40;99.90;;;;;;5032445;28;20543;-57
2022/05/18 01:32:54;;;;;;;8.23;1.27;;;12.40;99.90;;;;;;5015829;28;20186;-56
2022/05/18 01:35:23;;;;;;;7.03;1.73;;;12.40;99.90;;;;;;5014295;28;20210;-56
2022/05/18 01:37:49;;;;;;;6.43;1.03;;;12.30;99.90;;;;;;5014027;28;20523;-56
2022/05/18 01:40:23;;;;;;;10.07;1.60;;;12.30;99.90;;;;;;5018567;28;20243;-56
2022/05/18 01:42:59;;;;;;;6.60;1.10;;;12.30;99.90;;;;;;5033587;28;20627;-56
2022/05/18 01:45:25;;;;;;;13.27;1.57;;;12.20;99.90;;;;;;5024253;28;20216;-56
2022/05/18 01:47:50;;;;;;;6.83;1.47;;;12.20;99.90;;;;;;5023942;28;20305;-56
2022/05/18 01:50:25;;;;;;;10.57;1.53;;;12.10;99.90;;;;;;5013880;28;20171;-56
2022/05/18 01:52:50;;;;;;;10.50;1.40;;;12.10;99.90;;;;;;5016075;28;20182;-55
2022/05/18 01:55:17;;;;;;;11.30;1.50;;;12.00;99.90;;;;;;5015078;28;20198;-56
2022/05/18 01:57:43;;;;;;;3.23;1.00;;;11.90;99.90;;;;;;5016867;28;20558;-56
2022/05/18 02:00:11;;;;;;;5.17;1.20;;;11.80;99.90;;;;;;5031765;28;20174;-56
2022/05/18 02:02:37;;;;;;;3.40;1.30;;;11.80;99.90;;;;;;5032837;28;20170;-56
2022/05/18 02:05:03;;;;;;;7.50;1.60;;;11.80;99.90;;;;;;5013510;28;20175;-56
2022/05/18 02:07:28;;;;;;;11.57;1.47;;;11.70;99.90;;;;;;5032272;28;20188;-56
2022/05/18 02:09:54;;;;;;;8.90;1.47;;;11.70;99.90;;;;;;5033366;28;20182;-56
2022/05/18 02:12:20;;;;;;;12.50;1.53;;;11.50;99.90;;;;;;5019932;28;20178;-56
2022/05/18 02:14:46;;;;;;;8.37;1.50;;;11.50;99.90;;;;;;5033018;28;20169;-56
2022/05/18 02:17:11;;;;;;;6.73;1.53;;;11.50;99.90;;;;;;5031388;28;20166;-56
2022/05/18 02:19:37;;;;;;;6.97;1.87;;;11.40;99.90;;;;;;5028240;28;20269;-56
2022/05/18 02:22:03;;;;;;;13.37;1.53;;;11.40;99.90;;;;;;5033000;28;20686;-56
2022/05/18 02:24:30;;;;;;;6.10;1.63;;;11.40;99.90;;;;;;5047372;28;20209;-56
2022/05/18 02:26:56;;;;;;;7.83;1.33;;;11.30;99.90;;;;;;5028953;28;20225;-56
2022/05/18 02:29:22;;;;;;;13.50;2.10;;;11.30;99.90;;;;;;5032611;28;20236;-56
2022/05/18 02:31:48;;;;;;;11.37;2.00;;;11.30;99.90;;;;;;5018395;28;20637;-56
2022/05/18 02:34:14;;;;;;;10.30;2.00;;;11.30;99.90;;;;;;5013006;28;20195;-56
2022/05/18 02:36:42;;;;;;;8.10;2.33;;;11.30;99.90;;;;;;5011925;28;20187;-56
2022/05/18 02:39:08;;;;;;;11.93;2.67;;;11.30;99.90;;;;;;5019480;28;20223;-56
2022/05/18 02:41:33;;;;;;;7.30;2.07;;;11.20;99.90;;;;;;5031013;28;20181;-56
2022/05/18 02:44:00;;;;;;;6.30;1.57;;;11.20;99.90;;;;;;5031812;28;20192;-56
2022/05/18 02:46:25;;;;;;;4.97;1.50;;;11.20;99.90;;;;;;5030040;28;20225;-56
2022/05/18 02:48:51;;;;;;;8.40;1.87;;;11.20;99.90;;;;;;5025791;28;20170;-56
2022/05/18 02:51:18;;;;;;;11.23;1.90;;;11.20;99.90;;;;;;5030432;28;20177;-56
2022/05/18 02:53:44;;;;;;;6.13;1.93;;;11.20;99.90;;;;;;5030482;28;20201;-57
2022/05/18 02:56:23;;;;;;;6.20;1.50;;;11.20;99.90;;;;;;5026446;28;20209;-56
2022/05/18 02:58:50;;;;;;;8.67;1.77;;;11.20;99.90;;;;;;5011910;28;20166;-56
2022/05/18 03:01:20;;;;;;;9.87;1.70;;;11.10;99.90;;;;;;5028635;28;20551;-56
2022/05/18 03:03:45;;;;;;;12.47;1.80;;;11.10;99.90;;;;;;5017604;28;20174;-55
2022/05/18 03:06:14;;;;;;;12.90;1.93;;;11.00;99.90;;;;;;5032016;28;20619;-56
2022/05/18 03:08:41;;;;;;;10.27;1.70;;;11.00;99.90;;;;;;5031733;28;20639;-56
2022/05/18 03:11:07;;;;;;;6.07;1.70;;;11.00;99.90;;;;;;5020856;28;20206;-56
2022/05/18 03:13:34;;;;;;;10.73;2.20;;;11.00;99.90;;;;;;5019551;28;20190;-55
2022/05/18 03:16:01;;;;;;;6.93;1.70;;;11.00;99.90;;;;;;5031848;28;20178;-56
2022/05/18 03:18:26;;;;;;;11.63;2.07;;;11.00;99.90;;;;;;5028094;28;20517;-56
2022/05/18 03:23:37;;;;;;;7.90;1.70;;;11.00;99.90;;;;;;5031787;28;20292;-56
2022/05/18 03:26:08;;;;;;;6.83;1.83;;;10.90;99.90;;;;;;5023114;28;20202;-57
2022/05/18 03:28:35;;;;;;;11.23;1.90;;;10.90;99.90;;;;;;5010759;28;20182;-57
2022/05/18 03:31:01;;;;;;;11.03;2.50;;;10.70;99.90;;;;;;5011473;28;20745;-57
2022/05/18 03:33:27;;;;;;;12.70;1.83;;;10.80;99.90;;;;;;5015362;28;20200;-57
2022/05/18 03:35:53;;;;;;;13.00;2.10;;;10.80;99.90;;;;;;5031050;28;20625;-57
2022/05/18 03:38:19;;;;;;;6.53;2.20;;;10.80;99.90;;;;;;5031125;28;20169;-57
2022/05/18 03:40:45;;;;;;;13.27;2.40;;;10.80;99.90;;;;;;5018680;28;20248;-57
2022/05/18 03:43:11;;;;;;;14.17;2.40;;;10.80;99.90;;;;;;5011317;28;20518;-57
2022/05/18 03:45:38;;;;;;;13.03;2.27;;;10.80;99.90;;;;;;5011220;28;20281;-57
2022/05/18 03:48:06;;;;;;;10.30;2.27;;;10.70;99.90;;;;;;5023887;28;20731;-57
2022/05/18 03:50:32;;;;;;;6.90;1.73;;;10.70;99.90;;;;;;5022634;28;20264;-57
2022/05/18 03:53:00;;;;;;;7.80;2.20;;;10.70;99.90;;;;;;5018899;28;20236;-57
2022/05/18 03:55:26;;;;;;;10.50;2.20;;;10.80;99.90;;;;;;5024171;28;20183;-57
2022/05/18 03:57:52;;;;;;;11.97;2.03;;;10.70;99.90;;;;;;5012794;28;20193;-57
2022/05/18 04:00:18;;;;;;;14.93;3.10;;;10.70;99.90;;;;;;5019139;28;20637;-57
2022/05/18 04:02:47;;;;;;;19.93;2.93;;;10.70;99.90;;;;;;5017712;28;20174;-56
2022/05/18 04:05:14;;;;;;;20.30;2.83;;;10.70;99.90;;;;;;5010554;28;20273;-55
2022/05/18 04:07:40;;;;;;;16.63;2.17;;;10.60;99.90;;;;;;5010990;28;20679;-54
2022/05/18 04:10:06;;;;;;;9.07;2.67;;;10.50;99.90;;;;;;5021412;28;20170;-55
2022/05/18 04:12:32;;;;;;;8.50;2.37;;;10.50;99.90;;;;;;5030781;28;20181;-55
2022/05/18 04:14:58;;;;;;;12.50;2.50;;;10.50;99.90;;;;;;5031304;28;20174;-56
2022/05/18 04:17:27;;;;;;;7.17;2.80;;;10.50;99.90;;;;;;5018070;28;20178;-56
2022/05/18 04:19:53;;;;;;;14.93;2.47;;;10.40;99.90;;;;;;5011241;28;20637;-56
2022/05/18 04:22:19;;;;;;;15.27;2.57;;;10.30;99.90;;;;;;5015676;28;20182;-56
2022/05/18 04:24:45;;;;;;;10.77;2.10;;;10.30;99.90;;;;;;5029574;28;20192;-56
2022/05/18 04:27:11;;;;;;;16.47;2.50;;;10.20;99.90;;;;;;5030655;28;20218;-56
2022/05/18 04:29:38;;;;;;;17.80;2.70;;;10.30;99.90;;;;;;5030664;28;20272;-56
2022/05/18 04:32:04;;;;;;;11.17;2.60;;;10.30;99.90;;;;;;5030819;28;20224;-56
2022/05/18 04:34:30;;;;;;;10.10;2.20;;;10.20;99.90;;;;;;5030621;28;20201;-56
2022/05/18 04:36:56;;;;;;;11.63;2.90;;;10.20;99.90;;;;;;5030586;28;20174;-57
2022/05/18 04:39:22;;;;;;;10.87;2.70;;;10.20;99.90;;;;;;5022417;28;20509;-55
2022/05/18 04:41:47;;;;;;;10.30;2.70;;;10.20;99.90;;;;;;5028793;28;20181;-55
2022/05/18 04:44:13;;;;;;;14.47;2.80;;;10.30;99.90;;;;;;5030119;28;20190;-56
2022/05/18 04:46:42;;;;;;;8.60;2.73;;;10.30;99.90;;;;;;5030320;28;20602;-56
2022/05/18 04:49:10;;;;;;;9.70;2.73;;;10.40;99.90;;;;;;5029843;28;20190;-57
2022/05/18 04:51:36;;;;;;;10.87;2.57;;;10.30;99.90;;;;;;5013308;28;20178;-56
2022/05/18 04:54:02;;;;;;;9.93;2.70;;;10.40;99.90;;;;;;5009863;28;20548;-57
2022/05/18 04:56:27;;;;;;;13.87;2.90;;;10.40;99.90;;;;;;5009778;28;20232;-57
2022/05/18 04:58:53;;;;;;;18.13;3.30;;;10.50;99.90;;;;;;4992446;28;20257;-56
2022/05/18 05:01:19;;;;;;;8.63;2.80;;;10.50;99.90;;;;;;5012113;28;20189;-57
2022/05/18 05:03:45;;;;;;;17.87;3.03;;;10.50;99.90;;;;;;5025259;28;20169;-56
2022/05/18 05:06:11;;;;;;;14.07;3.13;;;10.60;99.90;;;;;;5032920;28;20704;-57
2022/05/18 05:08:37;;;;;;;11.03;2.70;;;10.70;99.90;;;;;;5033246;28;20867;-56
2022/05/18 05:11:05;;;;;;;10.00;2.83;;;10.60;99.90;;;;;;5032970;28;20299;-56
2022/05/18 05:13:31;;;;;;;14.70;3.23;;;10.60;99.90;;;;;;5026061;28;20179;-57
2022/05/18 05:16:08;;;;;;;11.50;3.30;;;10.60;99.90;;;;;;5031271;28;20232;-57
2022/05/18 05:18:35;;;;;;;15.00;3.53;;;10.70;99.90;;;;;;5013053;28;20205;-56
2022/05/18 05:21:01;;;;;;;16.67;2.87;;;10.70;99.90;;;;;;5012633;28;20297;-57
2022/05/18 05:23:28;;;;;;;15.23;2.97;;;10.80;99.90;;;;;;5016422;28;20170;-56
2022/05/18 05:25:55;;;;;;;10.20;3.00;;;10.80;99.90;;;;;;5032851;28;20221;-56
2022/05/18 05:28:21;;;;;;;11.27;3.20;;;10.80;99.90;;;;;;5032418;28;20625;-56
2022/05/18 05:30:47;;;;;;;13.00;3.07;;;10.80;99.90;;;;;;5019769;28;20209;-57
2022/05/18 05:33:13;;;;;;;16.33;3.50;;;10.80;99.90;;;;;;5012993;28;20236;-57
2022/05/18 05:35:41;;;;;;;10.80;3.40;;;10.80;99.90;;;;;;5012891;28;20174;-57
2022/05/18 05:38:10;;;;;;;11.40;3.27;;;11.20;99.90;;;;;;5012740;28;20175;-57
2022/05/18 05:40:36;;;;;;;12.73;3.07;;;10.80;99.90;;;;;;5013825;28;20175;-57
2022/05/18 05:43:10;;;;;;;12.67;3.63;;;10.90;99.90;;;;;;5015321;28;20175;-57
2022/05/18 05:45:36;;;;;;;13.23;3.60;;;10.90;99.90;;;;;;5012625;28;20206;-57
2022/05/18 05:48:37;;;;;;;14.47;4.10;;;10.90;99.90;;;;;;5106781;27;1289064;-56
2022/05/18 05:51:04;;;;;;;11.17;3.63;;;11.00;99.90;;;;;;5112871;28;20211;-56
2022/05/18 05:53:32;;;;;;;15.40;3.67;;;11.10;99.90;;;;;;5108884;28;20179;-56
2022/05/18 05:55:58;;;;;;;17.57;4.10;;;11.20;99.90;;;;;;5108636;28;20171;-58
2022/05/18 05:58:26;;;;;;;10.77;3.80;;;11.40;99.90;;;;;;5108781;28;20179;-60
2022/05/18 06:00:51;;;;;;;10.43;4.03;;;11.40;99.90;;;;;;5108526;28;20272;-57
2022/05/18 06:03:18;;;;;;;12.00;4.23;;;11.50;99.90;;;;;;5111949;28;20188;-58
2022/05/18 06:05:44;;;;;;;22.80;5.17;;;11.60;99.90;;;;;;5108239;28;20213;-57
2022/05/18 06:08:10;;;;;;;23.90;6.10;;;11.70;99.90;;;;;;5107885;28;20238;-56
2022/05/18 06:10:36;;;;;;;24.03;5.13;;;11.90;99.90;;;;;;5108011;28;20212;-56
2022/05/18 06:13:10;;;;;;;21.17;5.87;;;12.00;99.90;;;;;;5108052;28;20673;-56
2022/05/18 06:15:36;;;;;;;22.50;4.83;;;12.10;99.90;;;;;;5108194;28;20179;-56
2022/05/18 06:18:02;;;;;;;24.10;6.27;;;12.20;99.90;;;;;;5108330;28;20171;-56
2022/05/18 06:20:29;;;;;;;22.03;4.73;;;12.40;99.90;;;;;;5108539;28;20176;-56
2022/05/18 06:22:57;;;;;;;20.00;3.87;;;12.40;99.90;;;;;;5108290;28;20280;-56
2022/05/18 06:25:23;;;;;;;22.40;4.63;;;12.50;99.90;;;;;;5107921;28;20736;-56
2022/05/18 06:27:48;;;;;;;18.70;4.00;;;12.60;99.90;;;;;;5108026;28;20301;-56
2022/05/18 06:30:14;;;;;;;16.70;3.83;;;12.60;99.90;;;;;;5108053;28;20186;-57
2022/05/18 06:32:40;;;;;;;19.17;4.20;;;12.70;99.90;;;;;;5121945;28;20266;-57
2022/05/18 06:35:07;;;;;;;21.93;4.07;;;12.80;99.90;;;;;;5122037;27;20582;-57
2022/05/18 06:37:33;;;;;;;26.27;3.97;;;12.90;99.90;;;;;;5122302;28;20587;-57
2022/05/18 06:39:59;;;;;;;23.03;3.60;;;13.00;99.90;;;;;;5124823;27;20273;-57
2022/05/18 06:42:24;;;;;;;20.23;4.03;;;13.00;99.90;;;;;;5114190;28;20183;-57
2022/05/18 06:44:50;;;;;;;17.20;3.28;;;13.20;99.90;;;;;;5124294;28;20185;-57
2022/05/18 06:47:17;;;;;;;20.67;3.20;;;13.30;99.90;;;;;;5127620;27;20719;-56
2022/05/18 06:49:43;;;;;;;15.67;3.50;;;13.60;99.90;;;;;;5127603;27;20190;-57
2022/05/18 06:52:11;;;;;;;19.67;3.63;;;13.80;99.90;;;;;;5127887;27;20208;-56
2022/05/18 06:54:37;;;;;;;25.40;3.78;;;13.90;99.90;;;;;;5114251;27;20210;-56
2022/05/18 06:57:04;;;;;;;19.83;3.58;;;14.00;99.90;;;;;;5119335;28;20199;-58
2022/05/18 06:59:30;;;;;;;19.90;3.45;;;14.10;99.90;;;;;;5102855;27;20179;-58
2022/05/18 07:01:56;;;;;;;18.95;2.97;;;14.30;99.90;;;;;;5093184;28;20181;-58
2022/05/18 07:04:22;;;;;;;16.40;3.72;;;14.30;99.90;;;;;;5105845;28;20713;-58
2022/05/18 07:06:48;;;;;;;23.40;3.80;;;14.40;99.90;;;;;;5112843;28;20202;-58
2022/05/18 07:09:19;;;;;;;23.58;3.20;;;14.40;99.90;;;;;;5113705;28;20656;-58
2022/05/18 07:11:49;;;;;;;19.63;3.72;;;14.50;99.90;;;;;;5113894;28;20203;-57
2022/05/18 07:14:19;;;;;;;21.88;3.25;;;14.30;99.90;;;;;;5113746;28;20191;-58
2022/05/18 07:16:46;;;;;;;17.80;3.28;;;14.40;99.90;;;;;;5113599;28;20167;-58
2022/05/18 07:19:13;;;;;;;16.90;2.60;;;14.50;99.90;;;;;;5113268;28;20586;-58
2022/05/18 07:21:40;;;;;;;27.88;5.50;;;14.50;99.90;;;;;;5111942;28;20641;-65
2022/05/18 07:24:06;;;;;;;23.08;3.97;;;14.50;99.90;;;;;;5113647;28;20201;-65
2022/05/18 07:26:32;;;;;;;27.05;3.65;;;14.90;99.90;;;;;;5113363;28;20271;-65
2022/05/18 07:28:59;;;;;;;23.48;3.15;;;15.10;99.90;;;;;;5103174;28;20167;-63
2022/05/18 07:31:25;;;;;;;20.85;3.65;;;15.30;99.90;;;;;;5103416;28;20195;-66
2022/05/18 07:33:51;;;;;;;20.33;3.70;;;15.30;99.90;;;;;;5100420;28;20186;-63
2022/05/18 07:36:18;;;;;;;16.73;3.50;;;15.20;99.90;;;;;;5092904;28;20176;-64
2022/05/18 07:38:44;;;;;;;25.38;3.30;;;14.90;99.90;;;;;;5092772;28;20182;-63
2022/05/18 07:41:14;;;;;;;24.80;3.70;;;15.10;99.90;;;;;;5105361;28;20259;-64
2022/05/18 07:43:40;;;;;;;30.27;3.50;;;15.20;99.90;;;;;;5105779;28;20259;-65
2022/05/18 07:46:08;;;;;;;32.22;4.10;;;15.30;99.90;;;;;;5093118;28;20172;-65
2022/05/18 07:48:34;;;;;;;19.17;3.40;;;15.40;99.90;;;;;;5109417;28;20214;-65
2022/05/18 07:50:59;;;;;;;31.20;4.00;;;15.60;99.90;;;;;;5107188;28;20179;-65
2022/05/18 07:53:25;;;;;;;21.52;3.83;;;15.50;99.90;;;;;;5112003;28;20174;-63
2022/05/18 07:55:51;;;;;;;27.23;4.00;;;15.50;99.90;;;;;;5103398;28;20175;-63
2022/05/18 07:58:19;;;;;;;21.25;3.30;;;15.20;99.90;;;;;;5097307;28;20168;-63
2022/05/18 08:00:46;;;;;;;18.52;3.45;;;15.40;99.90;;;;;;5091792;28;20172;-63
2022/05/18 08:03:13;;;;;;;16.92;2.70;;;15.20;99.90;;;;;;5092102;28;20164;-64
2022/05/18 08:05:41;;;;;;;16.40;2.95;;;15.30;99.90;;;;;;5092425;28;20190;-62
2022/05/18 08:08:14;;;;;;;21.73;3.50;;;15.40;99.90;;;;;;5092451;28;20211;-63
2022/05/18 08:16:11;;;;;;;21.80;3.53;;;15.70;99.90;;;;;;5091939;28;20249;-59
2022/05/18 08:18:37;;;;;;;18.85;2.75;;;15.90;99.90;;;;;;5091984;28;20203;-61
2022/05/18 08:21:03;;;;;;;22.00;3.47;;;15.90;99.90;;;;;;5092299;28;20211;-56
2022/05/18 08:23:30;;;;;;;25.05;3.17;;;15.60;99.90;;;;;;5090990;28;20176;-57
2022/05/18 08:25:56;;;;;;;22.48;3.17;;;15.50;99.90;;;;;;5092434;28;20180;-60
2022/05/18 08:28:22;;;;;;;22.95;3.30;;;15.50;99.90;;;;;;5100000;28;20214;-60
2022/05/18 08:30:48;;;;;;;24.10;3.17;;;15.80;99.90;;;;;;5110689;28;20179;-59
2022/05/18 08:33:13;;;;;;;17.23;3.10;;;15.80;99.90;;;;;;5112250;28;20275;-60
2022/05/18 08:35:43;;;;;;;20.63;2.72;;;16.50;99.90;;;;;;5108989;28;20703;-61
2022/05/18 08:38:10;;;;;;;21.83;4.78;;;16.50;99.90;;;;;;5108972;28;20176;-60
2022/05/18 08:40:50;;;;;;;23.42;3.45;;;16.60;99.90;;;;;;5092079;28;20171;-61
2022/05/18 08:43:31;;;;;;;25.25;3.45;;;16.80;99.90;;;;;;5091897;28;20569;-61
2022/05/18 08:46:17;;;;;;;19.10;3.40;;;16.60;99.90;;;;;;5094476;28;20163;-60
2022/05/18 08:48:52;;;;;;;23.05;3.83;;;16.30;99.90;;;;;;5103235;28;20259;-59
2022/05/18 08:51:57;;;;;;;25.45;3.20;;;16.40;99.90;;;;;;5097632;28;20748;-60
2022/05/18 08:54:47;;;;;;;17.55;3.20;;;16.10;99.90;;;;;;5091517;28;20255;-60
2022/05/18 08:57:19;;;;;;;20.38;3.08;;;16.70;99.90;;;;;;5110272;28;20552;-61
2022/05/18 08:59:48;;;;;;;24.67;3.22;;;17.20;99.90;;;;;;5106388;28;20160;-61
2022/05/18 09:02:26;;;;;;;17.30;3.47;;;17.20;99.90;;;;;;5091404;28;20180;-60
2022/05/18 09:04:55;;;;;;;14.38;3.15;;;17.70;99.90;;;;;;5090174;28;20283;-61
2022/05/18 09:07:28;;;;;;;17.65;3.00;;;18.10;99.90;;;;;;5096552;27;20661;-59
2022/05/18 09:10:12;;;;;;;18.75;2.67;;;18.30;99.90;;;;;;5102449;28;20183;-59
2022/05/18 09:12:41;;;;;;;16.65;3.58;;;17.60;99.90;;;;;;5110344;28;20282;-58
2022/05/18 09:15:10;;;;;;;16.50;3.05;;;17.20;99.90;;;;;;5111598;28;20243;-58
2022/05/18 09:17:55;;;;;;;19.17;2.95;;;17.30;99.90;;;;;;5111668;28;20199;-59
2022/05/18 09:20:24;;;;;;;20.98;3.15;;;17.70;99.90;;;;;;5111416;28;20637;-59
2022/05/18 09:23:08;;;;;;;17.45;2.97;;;17.80;99.90;;;;;;5110352;28;20179;-59
2022/05/18 09:25:57;;;;;;;15.73;3.40;;;18.40;99.90;;;;;;5096934;28;20179;-59
2022/05/18 09:28:46;;;;;;;17.52;2.78;;;18.60;99.90;;;;;;5090107;28;20299;-59
2022/05/18 09:31:49;;;;;;;13.95;2.08;;;19.50;99.90;;;;;;5103999;28;20183;-59
2022/05/18 09:34:36;;;;;;;12.55;2.50;;;19.30;99.90;;;;;;5100212;28;20274;-60
2022/05/18 09:37:13;;;;;;;17.42;2.75;;;19.60;99.90;;;;;;5089273;28;20193;-59
2022/05/18 09:39:59;;;;;;;22.52;3.05;;;19.40;99.90;;;;;;5095313;28;20258;-59
2022/05/18 09:42:30;;;;;;;17.02;3.05;;;19.40;99.90;;;;;;5109436;28;20171;-58
2022/05/18 09:45:08;;;;;;;17.98;2.53;;;19.60;99.90;;;;;;5109265;28;20232;-59
2022/05/18 09:47:50;;;;;;;11.90;2.42;;;19.80;99.90;;;;;;5108944;28;20250;-58
2022/05/18 09:50:16;;;;;;;15.10;2.75;;;19.60;99.90;;;;;;5109395;28;20250;-59
2022/05/18 09:52:44;;;;;;;22.02;3.08;;;18.90;99.90;;;;;;5109345;28;20274;-59
2022/05/18 09:55:14;;;;;;;17.42;3.67;;;19.00;99.90;;;;;;5109118;28;20203;-58
2022/05/18 09:57:57;;;;;;;14.63;2.75;;;18.80;99.90;;;;;;5109331;28;20197;-62
2022/05/18 10:00:26;;;;;;;17.25;3.63;;;18.60;99.90;;;;;;5109973;28;20171;-63
2022/05/18 10:08:34;;;;;;;15.57;2.60;;;19.90;99.90;;;;;;5106934;28;20217;-61
2022/05/18 10:11:05;;;;;;;15.68;2.30;;;19.70;99.90;;;;;;5090930;28;20175;-62
2022/05/18 10:13:35;;;;;;;13.57;2.40;;;19.70;99.90;;;;;;5090362;28;20164;-62
2022/05/18 10:16:35;;;;;;;14.93;2.30;;;19.60;99.90;;;;;;5090653;28;20180;-62
2022/05/18 10:19:03;;;;;;;16.15;2.75;;;19.00;99.90;;;;;;5070845;28;20654;-61
2022/05/18 10:21:55;;;;;;;15.82;2.53;;;19.40;99.90;;;;;;5090425;28;20224;-62
2022/05/18 10:24:33;;;;;;;11.45;2.55;;;19.50;99.90;;;;;;5090328;28;20255;-61
2022/05/18 10:27:16;;;;;;;12.55;2.00;;;19.80;99.90;;;;;;5090262;28;20218;-61
2022/05/18 10:29:52;;;;;;;10.63;2.05;;;19.90;99.90;;;;;;5090236;28;20233;-62
2022/05/18 10:32:24;;;;;;;16.25;2.97;;;20.00;99.90;;;;;;5090501;28;20163;-62
2022/05/18 10:34:52;;;;;;;15.73;2.35;;;19.90;99.90;;;;;;5093022;28;20172;-62
2022/05/18 10:37:29;;;;;;;9.27;1.88;;;19.90;99.90;;;;;;5094183;28;20173;-62
2022/05/18 10:40:26;;;;;;;13.18;2.72;;;19.60;99.90;;;;;;5093903;28;20300;-61
2022/05/18 10:42:55;;;;;;;11.20;2.55;;;19.80;99.90;;;;;;5081919;28;20180;-61
2022/05/18 10:45:26;;;;;;;11.55;2.42;;;19.90;99.90;;;;;;5094023;28;20654;-61
2022/05/18 10:48:05;;;;;;;13.95;2.45;;;19.60;99.90;;;;;;5093935;28;20257;-61
2022/05/18 10:50:36;;;;;;;13.25;2.65;;;19.60;99.90;;;;;;5094041;28;20179;-62
2022/05/18 10:53:15;;;;;;;13.90;2.40;;;19.90;99.90;;;;;;5094101;28;20168;-62
2022/05/18 10:56:00;;;;;;;13.07;2.80;;;20.40;99.90;;;;;;5093863;28;20649;-62
2022/05/18 10:58:39;;;;;;;15.50;2.47;;;20.10;99.90;;;;;;5093676;28;20202;-63
2022/05/18 11:01:27;;;;;;;15.93;2.55;;;19.80;99.90;;;;;;5093742;28;20199;-61
2022/05/18 11:04:16;;;;;;;16.35;2.97;;;19.70;99.90;;;;;;5093863;28;20168;-61
2022/05/18 11:06:42;;;;;;;19.95;3.08;;;20.10;99.90;;;;;;5093594;28;20575;-61
2022/05/18 11:09:30;;;;;;;12.10;2.45;;;20.60;99.90;;;;;;5093599;28;20182;-60
2022/05/18 11:12:24;;;;;;;16.77;2.92;;;20.40;99.90;;;;;;5092058;28;20643;-61
2022/05/18 11:15:00;;;;;;;13.95;2.85;;;21.10;99.90;;;;;;5093360;28;20172;-61
2022/05/18 11:18:07;;;;;;;9.68;2.60;;;21.60;99.90;;;;;;5093261;28;20179;-61
2022/05/18 11:20:54;;;;;;;17.80;2.67;;;20.70;99.90;;;;;;5062951;28;20199;-61
2022/05/18 11:23:44;;;;;;;16.60;2.50;;;19.90;99.90;;;;;;5093273;28;20176;-60
2022/05/18 11:26:24;;;;;;;13.15;2.30;;;20.40;99.90;;;;;;5093259;28;20171;-61
2022/05/18 11:28:57;;;;;;;17.95;2.70;;;20.40;99.90;;;;;;5093254;28;20179;-60
2022/05/18 11:31:38;;;;;;;11.27;2.75;;;20.00;99.90;;;;;;5093164;28;20176;-61
2022/05/18 11:34:34;;;;;;;13.13;2.75;;;19.60;99.90;;;;;;5095057;28;20270;-62
2022/05/18 11:37:18;;;;;;;11.10;2.05;;;19.80;99.90;;;;;;5113414;28;20178;-61
2022/05/18 11:40:08;;;;;;;14.98;2.40;;;19.70;99.90;;;;;;5113270;28;20176;-61
2022/05/18 11:43:30;;;;;;;14.75;2.33;;;20.00;99.90;;;;;;5113284;28;20163;-60
2022/05/18 11:46:38;;;;;;;16.95;3.15;;;20.30;99.90;;;;;;5112389;28;20194;-61
2022/05/18 11:49:16;;;;;;;16.25;2.15;;;20.60;99.90;;;;;;5054478;28;20279;-60
2022/05/18 11:52:12;;;;;;;12.05;2.05;;;20.60;99.90;;;;;;5113112;28;20614;-61
2022/05/18 11:55:08;;;;;;;13.15;2.35;;;20.40;99.90;;;;;;5092647;28;20168;-62
2022/05/18 11:57:57;;;;;;;17.10;2.55;;;20.40;99.90;;;;;;5092682;28;20297;-62
2022/05/18 12:00:59;;;;;;;12.57;2.25;;;20.40;99.90;;;;;;5092612;28;20183;-61
2022/05/18 12:03:46;;;;;;;13.80;2.38;;;20.80;99.90;;;;;;5108638;28;20261;-61
2022/05/18 12:06:36;;;;;;;18.33;2.50;;;20.60;99.90;;;;;;5099541;28;20245;-62
2022/05/18 12:09:16;;;;;;;11.73;2.55;;;20.70;99.90;;;;;;5111324;28;20649;-62
2022/05/18 12:12:00;;;;;;;11.25;2.38;;;21.30;99.90;;;;;;5112139;28;20177;-62
2022/05/18 12:14:40;;;;;;;9.88;2.40;;;21.90;99.90;;;;;;5111865;28;20190;-62
2022/05/18 12:17:36;;;;;;;10.02;2.40;;;22.70;99.90;;;;;;5092015;28;20171;-63
2022/05/18 12:20:10;;;;;;;10.73;2.13;;;23.30;99.90;;;;;;5092056;28;20252;-63
2022/05/18 12:22:55;;;;;;;17.40;2.70;;;22.80;99.90;;;;;;5091691;28;20265;-62
2022/05/18 12:25:24;;;;;;;11.05;2.53;;;21.80;99.90;;;;;;5092225;28;20168;-62
2022/05/18 12:27:52;;;;;;;13.82;2.60;;;22.70;99.90;;;;;;5091879;28;20210;-63
2022/05/18 12:30:21;;;;;;;18.73;3.17;;;22.40;99.90;;;;;;5091550;28;20189;-62
2022/05/18 12:32:49;;;;;;;13.07;2.70;;;22.90;99.90;;;;;;5091962;28;20168;-62
2022/05/18 12:35:39;;;;;;;6.68;1.65;;;23.70;99.90;;;;;;5093238;28;20171;-62
2022/05/18 12:38:08;;;;;;;12.63;2.40;;;23.50;99.90;;;;;;5095384;28;20171;-62
2022/05/18 12:40:55;;;;;;;8.98;1.88;;;22.90;99.90;;;;;;5111865;28;20726;-62
2022/05/18 12:43:43;;;;;;;17.15;2.75;;;22.50;99.90;;;;;;5112121;28;20194;-61
2022/05/18 12:46:15;;;;;;;14.07;2.85;;;23.10;99.90;;;;;;5082914;28;20198;-62
2022/05/18 12:48:46;;;;;;;37.45;13.38;;;23.30;99.90;;;;;;5099710;28;20369;-62
2022/05/18 12:51:31;;;;;;;11.23;3.45;;;22.80;99.90;;;;;;5107910;28;20195;-62
2022/05/18 12:54:09;;;;;;;9.70;2.17;;;21.70;99.90;;;;;;5111106;28;20672;-62
2022/05/18 12:56:37;;;;;;;12.05;2.58;;;22.00;99.90;;;;;;5111475;28;20171;-62
2022/05/18 12:59:10;;;;;;;12.35;2.72;;;22.30;99.90;;;;;;5095956;28;20179;-63
2022/05/18 13:01:39;;;;;;;12.63;3.00;;;22.50;99.90;;;;;;5091315;28;20257;-61
2022/05/18 13:04:08;;;;;;;12.40;2.35;;;23.40;99.90;;;;;;5091490;28;20231;-62
2022/05/18 13:06:36;;;;;;;8.95;2.20;;;23.70;99.90;;;;;;5097427;28;20649;-61
2022/05/18 13:09:27;;;;;;;11.02;2.42;;;22.90;99.90;;;;;;5109398;28;20206;-62
2022/05/18 13:12:11;;;;;;;14.75;2.47;;;23.00;99.90;;;;;;5101503;28;20695;-64
2022/05/18 13:14:42;;;;;;;14.45;2.42;;;23.40;99.90;;;;;;5109990;28;20662;-65